createdAt,value
2019-01-29T00:01:46.087Z,3.97
2019-01-29T00:04:15.627Z,3.94
2019-01-29T00:06:45.159Z,3.97
2019-01-29T00:09:14.719Z,3.78
2019-01-29T00:11:44.236Z,3.87
2019-01-29T00:14:13.764Z,3.96
2019-01-29T00:16:43.249Z,4.10
2019-01-29T00:19:12.751Z,4.20
2019-01-29T00:21:42.242Z,4.16
2019-01-29T00:24:11.754Z,4.16
2019-01-29T00:26:41.260Z,4.26
2019-01-29T00:29:10.801Z,4.26
2019-01-29T00:31:40.321Z,4.23
2019-01-29T00:34:09.915Z,4.28
2019-01-29T00:36:39.445Z,4.27
2019-01-29T00:39:09.762Z,4.27
2019-01-29T00:41:39.292Z,4.26
2019-01-29T00:44:08.795Z,4.16
2019-01-29T00:46:38.289Z,4.20
2019-01-29T00:49:07.812Z,4.31
2019-01-29T00:51:37.341Z,4.39
2019-01-29T00:54:07.108Z,4.43
2019-01-29T00:56:36.630Z,4.35
2019-01-29T00:59:06.164Z,4.17
2019-01-29T01:01:35.679Z,4.25
2019-01-29T01:04:05.803Z,4.04
2019-01-29T01:06:35.322Z,4.10
2019-01-29T01:09:08.366Z,4.22
2019-01-29T01:11:37.869Z,4.29
2019-01-29T01:14:07.513Z,4.24
2019-01-29T01:16:36.987Z,4.28
2019-01-29T01:19:06.458Z,4.33
2019-01-29T01:21:35.951Z,4.39
2019-01-29T01:24:05.558Z,4.17
2019-01-29T01:26:35.046Z,4.26
2019-01-29T01:29:04.655Z,4.35
2019-01-29T01:31:34.168Z,4.38
2019-01-29T01:34:03.667Z,4.45
2019-01-29T01:36:33.188Z,4.53
2019-01-29T01:39:07.634Z,4.56
2019-01-29T01:41:37.162Z,4.61
2019-01-29T01:44:06.631Z,4.62
2019-01-29T01:46:36.122Z,4.63
2019-01-29T01:49:05.704Z,4.73
2019-01-29T01:51:35.163Z,4.78
2019-01-29T01:54:04.768Z,4.78
2019-01-29T01:56:34.320Z,4.86
2019-01-29T01:59:03.813Z,4.89
2019-01-29T02:01:33.358Z,4.81
2019-01-29T02:04:02.862Z,4.81
2019-01-29T02:06:32.337Z,4.87
2019-01-29T02:09:01.818Z,4.68
2019-01-29T02:11:31.326Z,4.53
2019-01-29T02:14:00.847Z,4.61
2019-01-29T02:16:30.347Z,4.66
2019-01-29T02:18:59.831Z,4.60
2019-01-29T02:21:29.307Z,4.66
2019-01-29T02:23:58.810Z,4.66
2019-01-29T02:26:28.296Z,4.70
2019-01-29T02:28:57.774Z,4.69
2019-01-29T02:31:27.340Z,4.74
2019-01-29T02:33:56.835Z,4.64
2019-01-29T02:36:26.319Z,4.71
2019-01-29T02:38:55.833Z,4.62
2019-01-29T02:41:25.346Z,4.63
2019-01-29T02:43:54.865Z,4.63
2019-01-29T02:46:24.442Z,4.68
2019-01-29T02:48:53.945Z,4.68
2019-01-29T02:51:23.440Z,4.59
2019-01-29T02:53:52.907Z,4.64
2019-01-29T02:56:22.416Z,4.61
2019-01-29T02:58:51.904Z,4.63
2019-01-29T03:01:21.415Z,4.64
2019-01-29T03:03:50.922Z,4.70
2019-01-29T03:06:20.482Z,4.71
2019-01-29T03:08:49.983Z,4.65
2019-01-29T03:11:19.606Z,4.69
2019-01-29T03:13:49.160Z,4.66
2019-01-29T03:16:19.016Z,4.73
2019-01-29T03:18:48.536Z,4.83
2019-01-29T03:21:18.023Z,4.83
2019-01-29T03:23:47.516Z,4.91
2019-01-29T03:26:16.982Z,4.84
2019-01-29T03:28:46.543Z,4.89
2019-01-29T03:31:16.059Z,4.89
2019-01-29T03:33:45.553Z,4.93
2019-01-29T03:36:15.100Z,4.93
2019-01-29T03:38:44.597Z,4.94
2019-01-29T03:41:14.126Z,4.97
2019-01-29T03:43:43.620Z,5.04
2019-01-29T03:46:13.150Z,5.06
2019-01-29T03:48:42.652Z,4.96
2019-01-29T03:51:12.425Z,4.52
2019-01-29T03:53:42.071Z,4.50
2019-01-29T03:56:11.542Z,4.58
2019-01-29T03:58:41.052Z,4.57
2019-01-29T04:01:10.660Z,4.52
2019-01-29T04:03:40.176Z,4.52
2019-01-29T04:06:09.755Z,4.53
2019-01-29T04:08:39.252Z,4.58
2019-01-29T04:11:08.768Z,4.65
2019-01-29T04:13:38.279Z,4.65
2019-01-29T04:16:07.921Z,4.73
2019-01-29T04:18:37.448Z,4.80
2019-01-29T04:21:06.993Z,4.83
2019-01-29T04:23:36.526Z,4.91
2019-01-29T04:26:06.062Z,4.87
2019-01-29T04:28:35.534Z,4.97
2019-01-29T04:31:05.040Z,5.03
2019-01-29T04:33:34.513Z,5.01
2019-01-29T04:36:04.107Z,5.12
2019-01-29T04:38:33.632Z,5.07
2019-01-29T04:41:03.760Z,5.08
2019-01-29T04:43:33.259Z,5.12
2019-01-29T04:46:02.809Z,5.20
2019-01-29T04:48:32.330Z,5.25
2019-01-29T04:51:01.834Z,5.27
2019-01-29T04:53:31.715Z,5.30
2019-01-29T04:56:01.241Z,5.29
2019-01-29T04:58:30.748Z,5.15
2019-01-29T05:01:00.253Z,5.06
2019-01-29T05:03:29.782Z,5.08
2019-01-29T05:05:59.322Z,5.09
2019-01-29T05:08:28.893Z,5.16
2019-01-29T05:10:58.388Z,5.15
2019-01-29T05:13:27.891Z,5.16
2019-01-29T05:15:57.417Z,5.17
2019-01-29T05:18:26.885Z,5.08
2019-01-29T05:20:56.364Z,5.02
2019-01-29T05:23:25.921Z,4.98
2019-01-29T05:25:55.454Z,4.87
2019-01-29T05:28:24.945Z,4.84
2019-01-29T05:30:54.537Z,4.87
2019-01-29T05:33:24.061Z,4.93
2019-01-29T05:35:53.574Z,5.02
2019-01-29T05:38:23.077Z,5.08
2019-01-29T05:40:52.580Z,5.11
2019-01-29T05:43:22.128Z,5.19
2019-01-29T05:45:51.604Z,5.29
2019-01-29T05:48:21.075Z,5.30
2019-01-29T05:50:50.579Z,5.35
2019-01-29T05:53:20.076Z,5.38
2019-01-29T05:55:49.620Z,5.36
2019-01-29T05:58:19.185Z,5.25
2019-01-29T06:00:48.712Z,5.25
2019-01-29T06:03:18.227Z,5.29
2019-01-29T06:05:47.730Z,5.29
2019-01-29T06:08:17.305Z,5.34
2019-01-29T06:10:46.804Z,5.26
2019-01-29T06:13:16.619Z,5.09
2019-01-29T06:15:46.133Z,5.17
2019-01-29T06:18:15.744Z,5.21
2019-01-29T06:20:50.215Z,5.21
2019-01-29T06:23:19.796Z,5.27
2019-01-29T06:25:49.335Z,5.29
2019-01-29T06:28:18.868Z,5.33
2019-01-29T06:30:48.396Z,5.41
2019-01-29T06:33:17.912Z,5.47
2019-01-29T06:35:47.493Z,5.50
2019-01-29T06:38:17.017Z,5.56
2019-01-29T06:40:46.611Z,5.65
2019-01-29T06:43:16.088Z,5.71
2019-01-29T06:45:46.616Z,5.73
2019-01-29T06:48:16.727Z,5.69
2019-01-29T06:50:46.203Z,5.73
2019-01-29T06:53:15.736Z,5.72
2019-01-29T06:55:45.288Z,5.66
2019-01-29T06:58:16.506Z,5.75
2019-01-29T07:00:46.048Z,5.81
2019-01-29T07:03:18.547Z,5.73
2019-01-29T07:05:48.027Z,5.71
2019-01-29T07:08:17.527Z,5.67
2019-01-29T07:10:47.043Z,5.70
2019-01-29T07:13:16.562Z,5.75
2019-01-29T07:16:20.478Z,5.81
2019-01-29T07:19:08.960Z,5.84
2019-01-29T07:21:38.479Z,5.79
2019-01-29T07:24:08.146Z,5.88
2019-01-29T07:26:37.655Z,6.02
2019-01-29T07:29:07.136Z,6.05
2019-01-29T07:31:36.648Z,6.10
2019-01-29T07:34:06.174Z,6.13
2019-01-29T07:36:35.741Z,6.01
2019-01-29T07:39:08.755Z,5.97
2019-01-29T07:41:38.234Z,6.00
2019-01-29T07:44:07.733Z,6.08
2019-01-29T07:46:37.269Z,5.72
2019-01-29T07:49:06.796Z,5.80
2019-01-29T07:51:36.455Z,5.98
2019-01-29T07:54:06.101Z,6.21
2019-01-29T07:56:35.706Z,6.41
2019-01-29T07:59:05.332Z,6.67
2019-01-29T08:01:35.337Z,6.93
2019-01-29T08:04:05.233Z,6.82
2019-01-29T08:06:34.764Z,6.49
2019-01-29T08:09:06.919Z,6.46
2019-01-29T08:11:36.483Z,6.63
2019-01-29T08:14:06.203Z,6.78
2019-01-29T08:16:35.731Z,6.88
2019-01-29T08:19:05.734Z,6.98
2019-01-29T08:21:35.238Z,7.03
2019-01-29T08:24:04.790Z,7.18
2019-01-29T08:26:34.573Z,7.18
2019-01-29T08:29:04.903Z,7.15
2019-01-29T08:31:34.462Z,7.19
2019-01-29T08:34:04.385Z,7.23
2019-01-29T08:36:33.868Z,7.26
2019-01-29T08:39:05.037Z,7.33
2019-01-29T08:41:34.632Z,7.32
2019-01-29T08:44:04.292Z,7.41
2019-01-29T08:46:33.817Z,7.32
2019-01-29T08:49:03.407Z,7.40
2019-01-29T08:51:32.958Z,7.46
2019-01-29T08:54:02.501Z,7.40
2019-01-29T08:56:32.179Z,7.24
2019-01-29T08:59:01.669Z,7.01
2019-01-29T09:01:31.280Z,6.89
2019-01-29T09:04:00.848Z,6.84
2019-01-29T09:06:30.512Z,6.69
2019-01-29T09:08:59.977Z,6.59
2019-01-29T09:11:29.563Z,6.55
2019-01-29T09:13:59.065Z,6.51
2019-01-29T09:16:28.600Z,6.65
2019-01-29T09:18:58.129Z,6.71
2019-01-29T09:21:27.876Z,6.72
2019-01-29T09:23:57.532Z,6.75
2019-01-29T09:26:27.073Z,6.82
2019-01-29T09:28:56.568Z,6.84
2019-01-29T09:31:26.147Z,6.71
2019-01-29T09:33:55.673Z,6.56
2019-01-29T09:36:25.231Z,6.65
2019-01-29T09:38:54.857Z,6.69
2019-01-29T09:41:24.387Z,6.38
2019-01-29T09:43:53.934Z,6.34
2019-01-29T09:46:23.466Z,6.50
2019-01-29T09:48:53.015Z,6.64
2019-01-29T09:51:22.607Z,6.78
2019-01-29T09:53:52.457Z,6.58
2019-01-29T09:56:22.046Z,6.61
2019-01-29T09:58:51.549Z,6.66
2019-01-29T10:01:21.146Z,6.81
2019-01-29T10:03:50.693Z,6.73
2019-01-29T10:06:20.323Z,6.73
2019-01-29T10:08:50.016Z,6.85
2019-01-29T10:11:19.723Z,6.91
2019-01-29T10:13:49.264Z,6.92
2019-01-29T10:16:18.804Z,7.14
2019-01-29T10:18:51.374Z,7.22
2019-01-29T10:21:21.080Z,7.32
2019-01-29T10:23:50.620Z,7.31
2019-01-29T10:26:20.333Z,7.08
2019-01-29T10:28:49.938Z,7.23
2019-01-29T10:31:19.453Z,7.49
2019-01-29T10:33:48.964Z,7.56
2019-01-29T10:36:18.533Z,7.56
2019-01-29T10:38:48.080Z,7.55
2019-01-29T10:41:17.629Z,7.47
2019-01-29T10:43:47.179Z,7.57
2019-01-29T10:46:16.770Z,7.61
2019-01-29T10:48:46.372Z,7.22
2019-01-29T10:51:16.088Z,7.38
2019-01-29T10:53:45.894Z,7.33
2019-01-29T10:56:15.425Z,7.46
2019-01-29T10:58:44.935Z,7.33
2019-01-29T11:01:14.687Z,7.34
2019-01-29T11:03:44.370Z,7.42
2019-01-29T11:06:13.905Z,7.61
2019-01-29T11:08:43.525Z,7.74
2019-01-29T11:11:13.020Z,7.83
2019-01-29T11:13:42.509Z,7.82
2019-01-29T11:16:12.378Z,7.88
2019-01-29T11:18:41.961Z,7.87
2019-01-29T11:21:11.474Z,7.82
2019-01-29T11:23:40.990Z,7.88
2019-01-29T11:26:10.627Z,8.01
2019-01-29T11:28:40.175Z,8.24
2019-01-29T11:31:09.709Z,8.38
2019-01-29T11:33:39.280Z,8.24
2019-01-29T11:36:08.808Z,8.27
2019-01-29T11:38:38.355Z,8.35
2019-01-29T11:41:08.031Z,8.46
2019-01-29T11:43:37.544Z,8.39
2019-01-29T11:46:07.299Z,8.48
2019-01-29T11:48:36.828Z,8.57
2019-01-29T11:51:06.387Z,8.56
2019-01-29T11:53:35.915Z,8.60
2019-01-29T11:56:05.992Z,8.63
2019-01-29T11:58:35.548Z,8.49
2019-01-29T12:01:07.387Z,8.41
2019-01-29T12:03:36.931Z,8.31
2019-01-29T12:06:06.766Z,8.17
2019-01-29T12:08:36.615Z,7.99
2019-01-29T12:11:06.391Z,7.92
2019-01-29T12:13:36.085Z,7.92
2019-01-29T12:16:10.333Z,7.90
2019-01-29T12:18:40.006Z,7.88
2019-01-29T12:21:09.536Z,7.75
2019-01-29T12:23:42.591Z,7.69
2019-01-29T12:26:13.262Z,7.69
2019-01-29T12:28:43.444Z,7.66
2019-01-29T12:31:13.014Z,7.55
2019-01-29T12:33:42.598Z,7.51
2019-01-29T12:36:12.112Z,7.46
2019-01-29T12:38:41.677Z,7.40
2019-01-29T12:41:11.178Z,7.33
2019-01-29T12:43:40.677Z,7.46
2019-01-29T12:46:10.228Z,7.43
2019-01-29T12:48:39.758Z,7.53
2019-01-29T12:51:16.734Z,7.66
2019-01-29T12:53:46.764Z,7.82
2019-01-29T12:56:21.382Z,7.79
2019-01-29T12:58:47.587Z,7.69
2019-01-29T13:01:17.108Z,7.78
2019-01-29T13:03:46.645Z,7.91
2019-01-29T13:06:16.126Z,7.80
2019-01-29T13:08:45.675Z,7.72
2019-01-29T13:11:15.234Z,7.68
2019-01-29T13:13:44.840Z,7.76
2019-01-29T13:16:14.399Z,7.80
2019-01-29T13:18:43.957Z,7.69
2019-01-29T13:21:15.951Z,7.51
2019-01-29T13:23:45.502Z,7.55
2019-01-29T13:26:15.228Z,7.63
2019-01-29T13:28:45.158Z,7.67
2019-01-29T13:31:14.689Z,7.76
2019-01-29T13:33:44.129Z,7.76
2019-01-29T13:36:13.663Z,7.81
2019-01-29T13:38:43.163Z,7.86
2019-01-29T13:41:12.683Z,7.82
2019-01-29T13:43:42.316Z,7.83
2019-01-29T13:46:11.851Z,7.79
2019-01-29T13:48:41.598Z,7.62
2019-01-29T13:51:11.239Z,7.47
2019-01-29T13:53:41.085Z,7.44
2019-01-29T13:56:10.902Z,7.43
2019-01-29T13:58:40.459Z,7.42
2019-01-29T14:01:10.158Z,7.48
2019-01-29T14:03:39.756Z,7.52
2019-01-29T14:06:09.324Z,7.52
2019-01-29T14:08:38.889Z,7.55
2019-01-29T14:11:08.459Z,7.55
2019-01-29T14:13:38.038Z,7.60
2019-01-29T14:16:10.854Z,7.50
2019-01-29T14:18:40.383Z,7.52
2019-01-29T14:21:09.859Z,7.51
2019-01-29T14:23:39.413Z,7.55
2019-01-29T14:26:08.927Z,7.50
2019-01-29T14:28:38.522Z,7.47
2019-01-29T14:31:08.087Z,7.59
2019-01-29T14:33:37.683Z,7.61
2019-01-29T14:36:16.229Z,7.56
2019-01-29T14:39:05.983Z,7.54
2019-01-29T14:41:36.152Z,7.52
2019-01-29T14:44:08.256Z,7.53
2019-01-29T14:46:38.137Z,7.61
2019-01-29T14:49:07.644Z,7.61
2019-01-29T14:51:37.339Z,7.53
2019-01-29T14:54:06.961Z,7.59
2019-01-29T14:56:36.517Z,7.65
2019-01-29T14:59:06.127Z,7.64
2019-01-29T15:01:35.890Z,7.60
2019-01-29T15:04:05.544Z,7.58
2019-01-29T15:06:35.797Z,7.63
2019-01-29T15:09:11.071Z,7.67
2019-01-29T15:11:40.660Z,7.70
2019-01-29T15:14:10.219Z,7.66
2019-01-29T15:17:04.730Z,7.55
2019-01-29T15:19:35.081Z,7.61
2019-01-29T15:22:08.958Z,7.58
2019-01-29T15:24:41.592Z,7.47
2019-01-29T15:27:11.236Z,7.28
2019-01-29T15:29:40.776Z,7.13
2019-01-29T15:32:10.406Z,7.17
2019-01-29T15:34:43.083Z,7.26
2019-01-29T15:37:12.635Z,7.35
2019-01-29T15:39:42.173Z,7.39
2019-01-29T15:42:11.731Z,7.36
2019-01-29T15:44:41.215Z,7.38
2019-01-29T15:47:10.831Z,7.33
2019-01-29T15:49:40.362Z,7.34
2019-01-29T15:52:09.938Z,7.29
2019-01-29T15:54:39.537Z,7.25
2019-01-29T15:57:14.074Z,7.32
2019-01-29T15:59:43.117Z,7.34
2019-01-29T16:02:11.644Z,7.37
2019-01-29T16:04:41.168Z,7.34
2019-01-29T16:07:10.710Z,7.21
2019-01-29T16:09:40.232Z,6.97
2019-01-29T16:12:09.842Z,6.90
2019-01-29T16:14:39.835Z,6.93
2019-01-29T16:17:09.429Z,6.94
2019-01-29T16:19:38.940Z,6.94
2019-01-29T16:22:08.567Z,6.89
2019-01-29T16:24:38.204Z,6.89
2019-01-29T16:27:07.713Z,6.85
2019-01-29T16:29:37.263Z,6.86
2019-01-29T16:32:06.822Z,6.83
2019-01-29T16:34:36.388Z,6.74
2019-01-29T16:37:05.949Z,6.58
2019-01-29T16:39:35.536Z,6.43
2019-01-29T16:42:05.223Z,6.42
2019-01-29T16:44:34.729Z,6.35
2019-01-29T16:47:04.245Z,6.35
2019-01-29T16:49:33.897Z,6.34
2019-01-29T16:52:03.457Z,6.39
2019-01-29T16:54:33.032Z,6.34
2019-01-29T16:57:02.655Z,6.22
2019-01-29T16:59:32.279Z,6.23
2019-01-29T17:02:01.850Z,6.19
2019-01-29T17:04:31.406Z,6.27
2019-01-29T17:07:00.940Z,6.32
2019-01-29T17:09:30.491Z,6.39
2019-01-29T17:12:00.097Z,6.43
2019-01-29T17:14:29.675Z,6.46
2019-01-29T17:16:59.245Z,6.43
2019-01-29T17:19:28.784Z,6.48
2019-01-29T17:21:58.424Z,6.53
2019-01-29T17:24:27.932Z,6.52
2019-01-29T17:27:00.265Z,6.49
2019-01-29T17:29:29.845Z,6.55
2019-01-29T17:31:59.365Z,6.63
2019-01-29T17:34:28.998Z,6.69
2019-01-29T17:36:58.522Z,6.73
2019-01-29T17:39:28.083Z,6.81
2019-01-29T17:41:57.625Z,6.80
2019-01-29T17:44:27.160Z,6.76
2019-01-29T17:46:56.686Z,6.80
2019-01-29T17:49:26.203Z,6.82
2019-01-29T17:51:55.779Z,6.84
2019-01-29T17:54:25.302Z,6.85
2019-01-29T17:56:54.786Z,6.83
2019-01-29T17:59:24.315Z,6.82
2019-01-29T18:01:53.884Z,6.86
2019-01-29T18:04:23.438Z,6.91
2019-01-29T18:06:53.147Z,6.86
2019-01-29T18:09:23.155Z,6.82
2019-01-29T18:11:52.736Z,6.85
2019-01-29T18:14:22.311Z,6.89
2019-01-29T18:16:53.312Z,6.89
2019-01-29T18:19:23.318Z,6.92
2019-01-29T18:21:57.000Z,6.86
2019-01-29T18:24:25.458Z,6.86
2019-01-29T18:26:55.338Z,6.84
2019-01-29T18:29:25.026Z,6.81
2019-01-29T18:31:55.012Z,6.84
2019-01-29T18:34:24.625Z,6.87
2019-01-29T18:36:54.516Z,6.81
2019-01-29T18:39:24.199Z,6.91
2019-01-29T18:41:54.225Z,6.86
2019-01-29T18:44:24.734Z,6.89
2019-01-29T18:46:54.294Z,6.93
2019-01-29T18:49:26.911Z,6.95
2019-01-29T18:51:56.519Z,6.83
2019-01-29T18:54:26.148Z,6.70
2019-01-29T18:56:55.962Z,6.60
2019-01-29T18:59:25.517Z,6.57
2019-01-29T19:01:55.037Z,6.54
2019-01-29T19:04:24.569Z,6.60
2019-01-29T19:06:54.126Z,6.65
2019-01-29T19:09:23.655Z,6.65
2019-01-29T19:11:53.196Z,6.46
2019-01-29T19:14:22.942Z,6.34
2019-01-29T19:16:52.536Z,6.43
2019-01-29T19:19:24.790Z,6.41
2019-01-29T19:21:54.476Z,6.28
2019-01-29T19:24:24.455Z,6.17
2019-01-29T19:26:55.639Z,6.14
2019-01-29T19:29:27.807Z,6.04
2019-01-29T19:31:59.548Z,6.06
2019-01-29T19:34:29.051Z,6.11
2019-01-29T19:37:00.353Z,6.06
2019-01-29T19:39:30.290Z,6.20
2019-01-29T19:42:00.060Z,6.28
2019-01-29T19:44:29.659Z,6.32
2019-01-29T19:46:59.290Z,6.38
2019-01-29T19:49:28.985Z,6.36
2019-01-29T19:51:58.526Z,6.40
2019-01-29T19:54:28.057Z,6.44
2019-01-29T19:56:57.632Z,6.49
2019-01-29T19:59:27.655Z,6.54
2019-01-29T20:01:57.868Z,6.46
2019-01-29T20:04:27.609Z,6.51
2019-01-29T20:06:57.357Z,6.61
2019-01-29T20:09:27.470Z,6.56
2019-01-29T20:11:57.076Z,6.53
2019-01-29T20:14:26.706Z,6.59
2019-01-29T20:16:57.650Z,6.66
2019-01-29T20:19:27.367Z,6.72
2019-01-29T20:21:57.066Z,6.76
2019-01-29T20:24:26.870Z,6.72
2019-01-29T20:26:56.386Z,6.71
2019-01-29T20:29:25.947Z,6.75
2019-01-29T20:31:55.704Z,6.72
2019-01-29T20:34:25.348Z,6.78
2019-01-29T20:36:55.408Z,6.78
2019-01-29T20:39:34.469Z,6.84
2019-01-29T20:41:56.364Z,6.89
2019-01-29T20:44:25.998Z,6.86
2019-01-29T20:46:55.518Z,6.83
2019-01-29T20:49:25.044Z,6.85
2019-01-29T20:51:54.752Z,6.78
2019-01-29T20:54:24.303Z,6.80
2019-01-29T20:56:53.860Z,6.78
2019-01-29T20:59:23.424Z,6.81
2019-01-29T21:01:52.942Z,6.82
2019-01-29T21:04:22.548Z,6.81
2019-01-29T21:06:52.035Z,6.86
2019-01-29T21:09:21.571Z,6.82
2019-01-29T21:11:51.104Z,6.81
2019-01-29T21:14:20.624Z,6.82
2019-01-29T21:21:23.278Z,6.71
2019-01-29T21:23:52.781Z,6.62
2019-01-29T21:26:22.337Z,6.60
2019-01-29T21:28:51.831Z,6.63
2019-01-29T21:31:21.344Z,6.72
2019-01-29T21:33:50.874Z,6.69
2019-01-29T21:36:20.388Z,6.78
2019-01-29T21:38:49.976Z,6.72
2019-01-29T21:41:19.611Z,6.81
2019-01-29T21:43:49.080Z,6.76
2019-01-29T21:46:18.587Z,6.85
2019-01-29T21:48:48.114Z,6.79
2019-01-29T21:51:17.608Z,6.78
2019-01-29T21:53:47.120Z,6.84
2019-01-29T21:56:17.106Z,6.84
2019-01-29T21:58:46.635Z,6.86
2019-01-29T22:01:18.413Z,6.82
2019-01-29T22:03:47.918Z,6.83
2019-01-29T22:06:17.537Z,6.84
2019-01-29T22:08:47.070Z,6.87
2019-01-29T22:11:16.605Z,6.87
2019-01-29T22:13:46.142Z,6.81
2019-01-29T22:16:15.652Z,6.82
2019-01-29T22:18:45.144Z,6.77
2019-01-29T22:21:14.644Z,6.80
2019-01-29T22:23:44.141Z,6.83
2019-01-29T22:26:13.644Z,6.79
2019-01-29T22:28:43.186Z,6.76
2019-01-29T22:31:12.709Z,6.79
2019-01-29T22:33:42.226Z,6.73
2019-01-29T22:36:11.747Z,6.75
2019-01-29T22:38:41.248Z,6.76
2019-01-29T22:41:10.818Z,6.72
2019-01-29T22:43:40.348Z,6.71
2019-01-29T22:46:10.268Z,6.71
2019-01-29T22:48:39.837Z,6.57
2019-01-29T22:51:09.357Z,6.60
2019-01-29T22:53:38.850Z,6.58
2019-01-29T22:56:08.347Z,6.58
2019-01-29T22:58:37.881Z,6.66
2019-01-29T23:01:22.445Z,6.69
2019-01-29T23:04:19.264Z,6.68
2019-01-29T23:07:21.898Z,6.61
2019-01-29T23:09:51.427Z,6.62
2019-01-29T23:12:20.976Z,6.55
2019-01-29T23:14:50.550Z,6.12
2019-01-29T23:17:20.052Z,6.10
2019-01-29T23:19:50.657Z,6.01
2019-01-29T23:22:20.154Z,5.86
2019-01-29T23:24:49.835Z,5.80
2019-01-29T23:27:19.316Z,5.78
2019-01-29T23:29:48.812Z,5.83
2019-01-29T23:32:18.308Z,5.67
2019-01-29T23:34:47.957Z,5.71
2019-01-29T23:37:17.486Z,5.79
2019-01-29T23:39:47.020Z,5.87
2019-01-29T23:42:16.541Z,5.84
2019-01-29T23:44:46.083Z,5.71
2019-01-29T23:47:15.613Z,5.78
2019-01-29T23:49:45.237Z,5.84
2019-01-29T23:52:14.770Z,5.83
2019-01-29T23:54:44.253Z,5.80
2019-01-29T23:57:13.757Z,5.88
2019-01-29T23:59:53.331Z,5.82
